Glenville, Connecticut
Current Conditions -  °F | °C
As of 2:56 AM on Friday 24 Oct 2014 (Local Time) from KHPN Reporting Station
Scattered Clouds Scattered Clouds  
Wind Chill: 43°   Ceiling: Unl
Heat Index: 49°   Visibility: 10mi
Dew Point: 44°   Wind: 15mph
Humidity: 83%   Direction: 330°NNW
Pressure: 29.74"   Gusts: NA
Location:  41.0864°N, 73.6612°W
Report Text: KHPN 240656Z 33013KT 10SM SCT090 09/07 A2974 RMK AO2 SLP072 T00940067
Loading
Personal Weather Stations






























Interactive Weather Map
Tropical Storm Tracking
New forecast layout! Learn more

10-Day Weather Forecast

Advertisements
Track Severe Weather on mobile